createdAt,value
2018-07-31T00:00:21.042Z,101551.59
2018-07-31T00:02:50.058Z,101554.44
2018-07-31T00:05:18.955Z,101555.05
2018-07-31T00:07:48.132Z,101552.69
2018-07-31T00:10:16.802Z,101541.31
2018-07-31T00:12:45.585Z,101545.11
2018-07-31T00:15:14.347Z,101540.33
2018-07-31T00:17:43.203Z,101537.78
2018-07-31T00:20:12.062Z,101529.77
2018-07-31T00:22:40.898Z,101529.77
2018-07-31T00:25:09.714Z,101531.66
2018-07-31T00:27:38.587Z,101526.80
2018-07-31T00:30:08.922Z,101522.42
2018-07-31T00:32:37.698Z,101526.97
2018-07-31T00:35:06.502Z,101528.37
2018-07-31T00:37:35.853Z,101520.67
2018-07-31T00:40:04.927Z,101516.77
2018-07-31T00:42:33.767Z,101512.31
2018-07-31T00:45:02.556Z,101512.20
2018-07-31T00:47:31.423Z,101517.02
2018-07-31T00:50:00.240Z,101508.98
2018-07-31T00:52:29.101Z,101506.35
2018-07-31T00:54:57.859Z,101510.10
2018-07-31T00:57:26.667Z,101509.77
2018-07-31T00:59:55.449Z,101514.20
2018-07-31T01:02:24.245Z,101511.39
2018-07-31T01:04:53.121Z,101522.27
2018-07-31T01:07:21.929Z,101520.87
2018-07-31T01:09:50.810Z,101517.40
2018-07-31T01:12:19.619Z,101514.63
2018-07-31T01:14:48.413Z,101512.70
2018-07-31T01:17:17.327Z,101511.63
2018-07-31T01:19:46.145Z,101507.86
2018-07-31T01:22:14.991Z,101507.39
2018-07-31T01:24:43.851Z,101505.41
2018-07-31T01:27:12.662Z,101509.16
2018-07-31T01:29:41.318Z,101505.74
2018-07-31T01:32:10.207Z,101502.86
2018-07-31T01:34:38.979Z,101505.44
2018-07-31T01:37:07.623Z,101507.75
2018-07-31T01:39:36.467Z,101499.28
2018-07-31T01:42:05.246Z,101498.59
2018-07-31T01:44:34.035Z,101494.50
2018-07-31T01:47:02.653Z,101493.56
2018-07-31T01:49:31.464Z,101485.28
2018-07-31T01:52:00.214Z,101481.77
2018-07-31T01:54:29.095Z,101486.44
2018-07-31T01:56:57.758Z,101476.97
2018-07-31T01:59:26.558Z,101477.81
2018-07-31T02:01:55.297Z,101475.04
2018-07-31T02:04:24.144Z,101479.89
2018-07-31T02:06:52.990Z,101473.52
2018-07-31T02:09:21.798Z,101471.60
2018-07-31T02:11:50.575Z,101464.08
2018-07-31T02:14:19.397Z,101461.86
2018-07-31T02:16:48.076Z,101461.30
2018-07-31T02:19:16.999Z,101453.80
2018-07-31T02:21:45.818Z,101453.48
2018-07-31T02:24:14.635Z,101458.91
2018-07-31T02:26:43.475Z,101457.69
2018-07-31T02:29:12.292Z,101459.97
2018-07-31T02:31:40.967Z,101455.11
2018-07-31T02:34:09.802Z,101461.87
2018-07-31T02:36:38.611Z,101459.34
2018-07-31T02:39:08.134Z,101451.36
2018-07-31T02:41:37.024Z,101453.78
2018-07-31T02:44:05.992Z,101450.23
2018-07-31T02:46:34.856Z,101449.97
2018-07-31T02:49:03.651Z,101453.28
2018-07-31T02:51:32.509Z,101458.32
2018-07-31T02:54:01.312Z,101454.56
2018-07-31T02:56:30.236Z,101459.67
2018-07-31T02:58:59.024Z,101458.44
2018-07-31T03:01:27.896Z,101466.31
2018-07-31T03:03:56.663Z,101469.61
2018-07-31T03:06:25.525Z,101467.87
2018-07-31T03:08:54.356Z,101468.08
2018-07-31T03:11:23.196Z,101472.09
2018-07-31T03:13:52.223Z,101471.77
2018-07-31T03:16:21.165Z,101462.75
2018-07-31T03:18:49.985Z,101465.05
2018-07-31T03:21:19.706Z,101463.98
2018-07-31T03:23:48.489Z,101463.59
2018-07-31T03:26:17.671Z,101487.55
2018-07-31T03:28:46.504Z,101492.03
2018-07-31T03:31:15.351Z,101478.91
2018-07-31T03:33:44.195Z,101500.44
2018-07-31T03:36:13.047Z,101514.95
2018-07-31T03:38:41.781Z,101491.25
2018-07-31T03:41:10.532Z,101505.09
2018-07-31T03:43:39.352Z,101501.17
2018-07-31T03:46:08.173Z,101513.09
2018-07-31T03:48:37.002Z,101486.00
2018-07-31T03:51:05.712Z,101487.25
2018-07-31T03:53:34.559Z,101499.54
2018-07-31T03:56:03.380Z,101487.33
2018-07-31T03:58:32.256Z,101490.61
2018-07-31T04:01:01.028Z,101497.18
2018-07-31T04:03:29.852Z,101494.73
2018-07-31T04:05:58.610Z,101493.39
2018-07-31T04:08:27.431Z,101505.01
2018-07-31T04:10:56.384Z,101504.17
2018-07-31T04:13:25.208Z,101508.45
2018-07-31T04:15:53.982Z,101512.33
2018-07-31T04:18:22.814Z,101504.30
2018-07-31T04:20:51.618Z,101506.70
2018-07-31T04:23:20.490Z,101511.41
2018-07-31T04:25:49.365Z,101510.75
2018-07-31T04:28:18.520Z,101506.95
2018-07-31T04:30:47.337Z,101505.73
2018-07-31T04:33:16.176Z,101494.02
2018-07-31T04:35:44.864Z,101496.04
2018-07-31T04:38:14.055Z,101495.46
2018-07-31T04:40:42.890Z,101494.27
2018-07-31T04:43:11.647Z,101493.76
2018-07-31T04:45:46.457Z,101504.20
2018-07-31T04:48:15.277Z,101505.97
2018-07-31T04:50:44.080Z,101504.63
2018-07-31T04:53:12.852Z,101512.39
2018-07-31T04:55:41.656Z,101502.27
2018-07-31T04:58:10.452Z,101504.09
2018-07-31T05:00:39.330Z,101515.95
2018-07-31T05:03:08.136Z,101509.66
2018-07-31T05:05:37.000Z,101510.67
2018-07-31T05:08:05.988Z,101511.51
2018-07-31T05:10:34.804Z,101513.61
2018-07-31T05:13:03.758Z,101507.21
2018-07-31T05:15:32.606Z,101505.10
2018-07-31T05:18:01.400Z,101501.76
2018-07-31T05:20:30.224Z,101499.59
2018-07-31T05:22:58.999Z,101502.80
2018-07-31T05:25:27.862Z,101509.87
2018-07-31T05:27:56.631Z,101520.00
2018-07-31T05:30:25.764Z,101524.70
2018-07-31T05:32:54.461Z,101527.13
2018-07-31T05:35:23.207Z,101524.86
2018-07-31T05:37:52.249Z,101530.64
2018-07-31T05:40:21.144Z,101530.55
2018-07-31T05:42:49.933Z,101529.08
2018-07-31T05:45:24.835Z,101534.13
2018-07-31T05:47:53.695Z,101532.71
2018-07-31T05:50:22.519Z,101534.66
2018-07-31T05:52:51.338Z,101531.41
2018-07-31T05:55:19.978Z,101532.05
2018-07-31T05:57:48.866Z,101536.01
2018-07-31T06:00:17.719Z,101528.45
2018-07-31T06:02:46.539Z,101536.84
2018-07-31T06:05:15.362Z,101542.80
2018-07-31T06:07:44.223Z,101534.17
2018-07-31T06:10:12.991Z,101536.66
2018-07-31T06:12:41.871Z,101541.63
2018-07-31T06:15:10.719Z,101544.16
2018-07-31T06:17:39.495Z,101540.78
2018-07-31T06:20:16.179Z,101546.81
2018-07-31T06:22:46.546Z,101552.91
2018-07-31T06:25:15.399Z,101552.08
2018-07-31T06:27:44.648Z,101546.83
2018-07-31T06:30:14.620Z,101549.52
2018-07-31T06:32:43.684Z,101549.34
2018-07-31T06:35:12.714Z,101560.53
2018-07-31T06:37:41.556Z,101566.94
2018-07-31T06:40:10.456Z,101558.78
2018-07-31T06:42:39.435Z,101563.64
2018-07-31T06:45:08.364Z,101568.00
2018-07-31T06:47:37.164Z,101559.48
2018-07-31T06:50:06.183Z,101557.38
2018-07-31T06:52:34.992Z,101566.45
2018-07-31T06:55:03.936Z,101562.99
2018-07-31T06:57:32.758Z,101563.97
2018-07-31T07:00:01.628Z,101560.81
2018-07-31T07:02:30.472Z,101554.06
2018-07-31T07:04:59.222Z,101556.42
2018-07-31T07:07:28.087Z,101556.11
2018-07-31T07:09:57.190Z,101560.33
2018-07-31T07:12:26.488Z,101566.41
2018-07-31T07:14:55.279Z,101563.94
2018-07-31T07:17:24.111Z,101564.83
2018-07-31T07:19:52.892Z,101552.12
2018-07-31T07:22:21.541Z,101556.64
2018-07-31T07:24:50.416Z,101554.59
2018-07-31T07:27:19.230Z,101567.02
2018-07-31T07:29:48.019Z,101560.86
2018-07-31T07:32:16.801Z,101557.91
2018-07-31T07:34:45.635Z,101566.41
2018-07-31T07:37:14.474Z,101565.70
2018-07-31T07:39:43.348Z,101559.86
2018-07-31T07:42:12.127Z,101559.30
2018-07-31T07:44:40.943Z,101556.48
2018-07-31T07:47:09.964Z,101558.34
2018-07-31T07:49:39.504Z,101553.80
2018-07-31T07:52:08.162Z,101544.77
2018-07-31T07:54:36.998Z,101550.55
2018-07-31T07:57:05.983Z,101557.42
2018-07-31T07:59:35.086Z,101575.95
2018-07-31T08:02:04.016Z,101591.97
2018-07-31T08:04:33.116Z,101598.25
2018-07-31T08:07:01.952Z,101599.86
2018-07-31T08:09:30.780Z,101592.98
2018-07-31T08:11:59.654Z,101592.86
2018-07-31T08:14:28.603Z,101586.98
2018-07-31T08:16:57.391Z,101585.52
2018-07-31T08:19:26.166Z,101586.14
2018-07-31T08:21:55.008Z,101585.00
2018-07-31T08:24:23.807Z,101582.47
2018-07-31T08:26:52.610Z,101579.61
2018-07-31T08:29:21.430Z,101576.98
2018-07-31T08:31:50.246Z,101578.64
2018-07-31T08:34:18.915Z,101574.98
2018-07-31T08:36:47.744Z,101583.97
2018-07-31T08:39:16.618Z,101585.05
2018-07-31T08:41:45.300Z,101579.40
2018-07-31T08:44:14.069Z,101583.75
2018-07-31T08:46:42.858Z,101584.36
2018-07-31T08:49:11.683Z,101587.25
2018-07-31T08:51:40.516Z,101586.80
2018-07-31T08:54:09.348Z,101588.97
2018-07-31T08:56:37.986Z,101586.30
2018-07-31T08:59:06.832Z,101594.92
2018-07-31T09:01:35.404Z,101601.64
2018-07-31T09:04:04.371Z,101596.52
2018-07-31T09:06:33.147Z,101595.25
2018-07-31T09:09:02.010Z,101588.69
2018-07-31T09:11:30.767Z,101592.42
2018-07-31T09:13:59.600Z,101592.59
2018-07-31T09:16:28.570Z,101586.91
2018-07-31T09:18:57.205Z,101581.92
2018-07-31T09:21:25.982Z,101592.70
2018-07-31T09:23:54.746Z,101591.38
2018-07-31T09:26:23.589Z,101599.24
2018-07-31T09:28:52.462Z,101593.69
2018-07-31T09:31:21.282Z,101587.64
2018-07-31T09:33:50.074Z,101592.16
2018-07-31T09:36:18.903Z,101584.88
2018-07-31T09:38:47.813Z,101582.59
2018-07-31T09:41:16.484Z,101576.23
2018-07-31T09:43:45.323Z,101573.05
2018-07-31T09:46:14.137Z,101578.95
2018-07-31T09:48:43.265Z,101578.24
2018-07-31T09:51:12.033Z,101582.42
2018-07-31T09:53:40.926Z,101586.87
2018-07-31T09:56:09.728Z,101579.37
2018-07-31T09:58:38.567Z,101579.56
2018-07-31T10:01:13.203Z,101576.50
2018-07-31T10:03:42.064Z,101580.27
2018-07-31T10:06:11.187Z,101584.46
2018-07-31T10:08:39.998Z,101584.95
2018-07-31T10:11:08.788Z,101581.98
2018-07-31T10:13:37.623Z,101581.09
2018-07-31T10:16:06.674Z,101581.19
2018-07-31T10:18:35.844Z,101580.56
2018-07-31T10:21:04.646Z,101575.56
2018-07-31T10:23:33.418Z,101577.68
2018-07-31T10:26:02.229Z,101581.73
2018-07-31T10:28:31.162Z,101584.09
2018-07-31T10:31:00.207Z,101583.55
2018-07-31T10:33:28.815Z,101587.52
2018-07-31T10:35:57.662Z,101576.14
2018-07-31T10:38:26.467Z,101580.12
2018-07-31T10:40:55.363Z,101585.68
2018-07-31T10:43:24.173Z,101588.80
2018-07-31T10:45:54.996Z,101588.37
2018-07-31T10:48:23.761Z,101593.90
2018-07-31T10:50:52.596Z,101600.37
2018-07-31T10:53:21.437Z,101602.55
2018-07-31T10:55:50.264Z,101598.78
2018-07-31T10:58:19.095Z,101596.44
2018-07-31T11:00:47.754Z,101593.94
2018-07-31T11:03:16.571Z,101594.34
2018-07-31T11:05:45.449Z,101591.00
2018-07-31T11:08:14.062Z,101591.58
2018-07-31T11:10:42.925Z,101597.03
2018-07-31T11:13:11.826Z,101595.08
2018-07-31T11:15:40.635Z,101591.47
2018-07-31T11:18:09.350Z,101599.14
2018-07-31T11:20:38.125Z,101585.51
2018-07-31T11:23:07.099Z,101584.97
2018-07-31T11:25:35.901Z,101575.84
2018-07-31T11:28:04.752Z,101585.73
2018-07-31T11:30:33.579Z,101581.38
2018-07-31T11:33:02.441Z,101573.59
2018-07-31T11:35:31.077Z,101565.37
2018-07-31T11:37:59.904Z,101563.64
2018-07-31T11:40:28.731Z,101553.75
2018-07-31T11:42:57.634Z,101558.83
2018-07-31T11:45:32.758Z,101554.64
2018-07-31T11:48:01.855Z,101549.91
2018-07-31T11:50:30.692Z,101539.71
2018-07-31T11:52:59.700Z,101544.28
2018-07-31T11:55:28.515Z,101533.75
2018-07-31T11:57:57.302Z,101536.35
2018-07-31T12:00:25.929Z,101539.91
2018-07-31T12:02:54.814Z,101536.92
2018-07-31T12:05:23.735Z,101542.58
2018-07-31T12:07:52.493Z,101543.95
2018-07-31T12:10:21.358Z,101535.16
2018-07-31T12:12:50.053Z,101548.41
2018-07-31T12:15:18.929Z,101554.54
2018-07-31T12:17:47.863Z,101547.59
2018-07-31T12:20:16.714Z,101544.66
2018-07-31T12:22:45.340Z,101549.61
2018-07-31T12:25:14.152Z,101557.58
2018-07-31T12:27:42.991Z,101554.08
2018-07-31T12:30:11.863Z,101550.52
2018-07-31T12:32:41.228Z,101557.75
2018-07-31T12:35:10.367Z,101552.41
2018-07-31T12:37:39.253Z,101556.50
2018-07-31T12:40:08.329Z,101566.13
2018-07-31T12:42:37.239Z,101563.42
2018-07-31T12:45:06.084Z,101566.17
2018-07-31T12:47:34.727Z,101562.16
2018-07-31T12:50:03.936Z,101561.80
2018-07-31T12:52:32.760Z,101569.08
2018-07-31T12:55:01.619Z,101557.87
2018-07-31T12:57:30.245Z,101563.83
2018-07-31T12:59:59.233Z,101570.38
2018-07-31T13:02:28.077Z,101571.79
2018-07-31T13:04:56.825Z,101570.14
2018-07-31T13:07:26.852Z,101570.91
2018-07-31T13:09:55.667Z,101556.29
2018-07-31T13:12:24.539Z,101562.30
2018-07-31T13:14:53.343Z,101564.17
2018-07-31T13:17:22.292Z,101559.58
2018-07-31T13:19:51.177Z,101561.48
2018-07-31T13:22:19.979Z,101562.00
2018-07-31T13:24:49.168Z,101568.14
2018-07-31T13:27:18.008Z,101559.24
2018-07-31T13:29:46.907Z,101566.64
2018-07-31T13:32:15.766Z,101561.25
2018-07-31T13:34:44.627Z,101564.91
2018-07-31T13:37:13.511Z,101569.48
2018-07-31T13:39:42.306Z,101560.42
2018-07-31T13:42:11.165Z,101561.33
2018-07-31T13:44:40.008Z,101566.88
2018-07-31T13:47:08.837Z,101565.87
2018-07-31T13:49:37.614Z,101568.55
2018-07-31T13:52:06.617Z,101565.72
2018-07-31T13:54:35.712Z,101562.44
2018-07-31T13:57:04.592Z,101563.95
2018-07-31T13:59:33.363Z,101565.63
2018-07-31T14:02:02.168Z,101567.95
2018-07-31T14:04:30.954Z,101570.50
2018-07-31T14:06:59.775Z,101579.99
2018-07-31T14:09:28.632Z,101577.07
2018-07-31T14:11:57.521Z,101582.90
2018-07-31T14:14:26.587Z,101578.61
2018-07-31T14:16:55.420Z,101578.28
2018-07-31T14:19:24.195Z,101586.13
2018-07-31T14:21:53.122Z,101585.94
2018-07-31T14:24:21.989Z,101586.43
2018-07-31T14:26:50.862Z,101590.69
2018-07-31T14:29:19.658Z,101593.61
2018-07-31T14:31:48.451Z,101585.98
2018-07-31T14:34:17.159Z,101589.47
2018-07-31T14:36:45.974Z,101580.03
2018-07-31T14:39:14.867Z,101575.53
2018-07-31T14:41:43.894Z,101582.56
2018-07-31T14:44:13.770Z,101581.41
2018-07-31T14:46:42.626Z,101581.45
2018-07-31T14:49:11.429Z,101585.39
2018-07-31T14:51:40.274Z,101586.45
2018-07-31T14:54:09.165Z,101591.92
2018-07-31T14:56:37.807Z,101591.73
2018-07-31T14:59:06.692Z,101594.22
2018-07-31T15:01:35.515Z,101598.34
2018-07-31T15:04:04.203Z,101592.49
2018-07-31T15:06:33.026Z,101591.41
2018-07-31T15:09:01.883Z,101589.16
2018-07-31T15:11:30.865Z,101597.42
2018-07-31T15:13:59.661Z,101594.59
2018-07-31T15:16:28.626Z,101627.17
2018-07-31T15:18:57.494Z,101634.64
2018-07-31T15:21:27.472Z,101636.83
2018-07-31T15:23:56.370Z,101641.22
2018-07-31T15:26:24.968Z,101652.13
2018-07-31T15:28:53.811Z,101653.69
2018-07-31T15:31:22.612Z,101652.81
2018-07-31T15:33:51.500Z,101666.55
2018-07-31T15:36:20.451Z,101678.34
2018-07-31T15:38:49.339Z,101663.12
2018-07-31T15:41:18.170Z,101666.24
2018-07-31T15:43:47.038Z,101672.11
2018-07-31T15:46:19.590Z,101675.19
2018-07-31T15:48:48.467Z,101682.14
2018-07-31T15:51:17.256Z,101689.19
2018-07-31T15:53:45.917Z,101692.69
2018-07-31T15:56:14.740Z,101704.70
2018-07-31T15:58:43.590Z,101696.91
2018-07-31T16:01:12.690Z,101697.02
2018-07-31T16:03:41.518Z,101705.47
2018-07-31T16:06:10.222Z,101711.11
2018-07-31T16:08:39.141Z,101712.76
2018-07-31T16:11:08.032Z,101716.25
2018-07-31T16:13:36.928Z,101714.72
2018-07-31T16:16:06.136Z,101724.82
2018-07-31T16:18:34.946Z,101718.15
2018-07-31T16:21:04.480Z,101711.47
2018-07-31T16:23:33.264Z,101727.77
2018-07-31T16:26:02.180Z,101729.58
2018-07-31T16:28:30.999Z,101725.90
2018-07-31T16:30:59.861Z,101736.83
2018-07-31T16:33:28.678Z,101734.16
2018-07-31T16:35:57.518Z,101733.90
2018-07-31T16:38:26.726Z,101741.64
2018-07-31T16:40:55.666Z,101738.55
2018-07-31T16:43:24.487Z,101750.38
2018-07-31T16:45:59.366Z,101748.30
2018-07-31T16:48:28.302Z,101756.66
2018-07-31T16:50:57.107Z,101756.98
2018-07-31T16:53:25.746Z,101755.25
2018-07-31T16:55:54.567Z,101763.80
2018-07-31T16:58:23.459Z,101772.81
2018-07-31T17:00:52.385Z,101761.59
2018-07-31T17:03:21.024Z,101768.91
2018-07-31T17:05:50.162Z,101772.05
2018-07-31T17:08:18.958Z,101776.16
2018-07-31T17:10:47.819Z,101775.16
2018-07-31T17:13:16.717Z,101774.64
2018-07-31T17:15:45.613Z,101781.70
2018-07-31T17:18:16.874Z,101786.98
2018-07-31T17:20:45.738Z,101784.02
2018-07-31T17:23:14.558Z,101792.34
2018-07-31T17:25:43.463Z,101796.07
2018-07-31T17:28:12.315Z,101794.23
2018-07-31T17:30:41.120Z,101799.11
2018-07-31T17:33:10.081Z,101807.02
2018-07-31T17:35:38.944Z,101810.84
2018-07-31T17:38:07.712Z,101809.16
2018-07-31T17:40:36.660Z,101807.66
2018-07-31T17:43:05.612Z,101806.98
2018-07-31T17:45:40.411Z,101819.09
2018-07-31T17:48:09.458Z,101820.66
2018-07-31T17:50:38.227Z,101823.41
2018-07-31T17:53:07.083Z,101827.13
2018-07-31T17:55:35.677Z,101832.51
2018-07-31T17:58:04.545Z,101843.75
2018-07-31T18:00:33.415Z,101843.52
2018-07-31T18:03:02.247Z,101848.98
2018-07-31T18:05:32.007Z,101848.25
2018-07-31T18:08:01.055Z,101850.54
2018-07-31T18:10:29.710Z,101853.66
2018-07-31T18:12:58.593Z,101854.60
2018-07-31T18:15:27.399Z,101861.17
2018-07-31T18:17:56.214Z,101857.78
2018-07-31T18:20:24.870Z,101866.98
2018-07-31T18:22:53.884Z,101870.38
2018-07-31T18:25:22.820Z,101867.33
2018-07-31T18:27:52.318Z,101870.83
2018-07-31T18:30:21.324Z,101873.63
2018-07-31T18:32:50.113Z,101882.42
2018-07-31T18:35:19.107Z,101884.95
2018-07-31T18:37:47.993Z,101892.99
2018-07-31T18:40:17.171Z,101896.13
2018-07-31T18:42:45.806Z,101896.49
2018-07-31T18:45:14.619Z,101892.42
2018-07-31T18:47:44.007Z,101892.23
2018-07-31T18:50:12.854Z,101893.92
2018-07-31T18:52:41.610Z,101887.78
2018-07-31T18:55:10.650Z,101897.56
2018-07-31T18:57:39.403Z,101898.90
2018-07-31T19:00:08.128Z,101906.96
2018-07-31T19:02:36.971Z,101918.53
2018-07-31T19:05:05.843Z,101924.91
2018-07-31T19:07:34.668Z,101924.51
2018-07-31T19:10:03.624Z,101930.03
2018-07-31T19:12:32.392Z,101934.09
2018-07-31T19:15:01.691Z,101944.42
2018-07-31T19:17:30.747Z,101949.44
2018-07-31T19:19:59.353Z,101956.18
2018-07-31T19:22:28.349Z,101964.12
2018-07-31T19:24:57.160Z,101957.98
2018-07-31T19:27:25.857Z,101964.58
2018-07-31T19:29:54.649Z,101968.30
2018-07-31T19:32:23.481Z,101974.10
2018-07-31T19:34:52.108Z,101972.47
2018-07-31T19:37:20.979Z,101981.30
2018-07-31T19:39:49.891Z,101980.95
2018-07-31T19:42:18.963Z,101994.12
2018-07-31T19:44:47.813Z,101987.47
2018-07-31T19:47:16.598Z,101987.60
2018-07-31T19:49:46.035Z,101995.11
2018-07-31T19:52:15.594Z,102002.92
2018-07-31T19:54:44.546Z,102006.84
2018-07-31T19:57:13.148Z,102012.13
2018-07-31T19:59:42.438Z,102015.98
2018-07-31T20:02:11.094Z,102011.45
2018-07-31T20:04:39.909Z,102013.91
2018-07-31T20:07:08.541Z,102017.26
2018-07-31T20:09:37.343Z,102022.37
2018-07-31T20:12:06.333Z,102032.43
2018-07-31T20:14:35.447Z,102032.29
2018-07-31T20:17:04.379Z,102038.55
2018-07-31T20:19:33.054Z,102040.98
2018-07-31T20:22:02.166Z,102045.05
2018-07-31T20:24:30.944Z,102047.93
2018-07-31T20:26:59.621Z,102048.55
2018-07-31T20:29:28.490Z,102053.26
2018-07-31T20:31:57.616Z,102052.91
2018-07-31T20:34:26.198Z,102060.35
2018-07-31T20:36:55.094Z,102053.19
2018-07-31T20:39:23.906Z,102048.33
2018-07-31T20:41:52.773Z,102049.28
2018-07-31T20:44:21.384Z,102056.41
2018-07-31T20:46:50.207Z,102053.86
2018-07-31T20:49:18.952Z,102064.00
2018-07-31T20:51:47.787Z,102068.41
2018-07-31T20:54:16.594Z,102062.64
2018-07-31T20:56:45.532Z,102065.28
2018-07-31T20:59:14.288Z,102077.89
2018-07-31T21:01:43.110Z,102077.70
2018-07-31T21:04:11.870Z,102076.59
2018-07-31T21:06:40.781Z,102075.56
2018-07-31T21:09:11.137Z,102068.97
2018-07-31T21:11:40.233Z,102065.81
2018-07-31T21:14:09.063Z,102066.86
2018-07-31T21:16:37.847Z,102076.58
2018-07-31T21:19:06.828Z,102079.75
2018-07-31T21:21:35.596Z,102078.78
2018-07-31T21:24:04.400Z,102077.02
2018-07-31T21:26:33.660Z,102084.48
2018-07-31T21:29:02.306Z,102088.10
2018-07-31T21:31:31.179Z,102088.91
2018-07-31T21:33:59.980Z,102088.53
2018-07-31T21:36:28.747Z,102085.55
2018-07-31T21:38:57.636Z,102086.75
2018-07-31T21:41:26.687Z,102087.94
2018-07-31T21:43:55.597Z,102092.89
2018-07-31T21:46:24.200Z,102100.04
2018-07-31T21:48:53.016Z,102103.81
2018-07-31T21:51:21.804Z,102108.17
2018-07-31T21:53:50.622Z,102109.93
2018-07-31T21:56:19.482Z,102107.12
2018-07-31T21:58:48.318Z,102095.09
2018-07-31T22:01:16.936Z,102092.71
2018-07-31T22:03:45.699Z,102088.39
2018-07-31T22:06:14.516Z,102095.92
2018-07-31T22:08:43.380Z,102106.83
2018-07-31T22:11:12.123Z,102103.86
2018-07-31T22:13:40.859Z,102108.64
2018-07-31T22:16:09.696Z,102111.41
2018-07-31T22:18:38.502Z,102109.80
2018-07-31T22:21:07.294Z,102122.51
2018-07-31T22:23:36.140Z,102122.91
2018-07-31T22:26:05.243Z,102133.25
2018-07-31T22:28:34.065Z,102134.44
2018-07-31T22:31:02.843Z,102128.50
2018-07-31T22:33:31.762Z,102130.69
2018-07-31T22:36:00.550Z,102126.31
2018-07-31T22:38:29.359Z,102126.52
2018-07-31T22:40:58.017Z,102127.28
2018-07-31T22:43:26.803Z,102128.85
2018-07-31T22:46:01.448Z,102133.02
2018-07-31T22:48:30.204Z,102134.63
2018-07-31T22:50:59.014Z,102143.38
2018-07-31T22:53:27.768Z,102146.16
2018-07-31T22:55:56.664Z,102140.17
2018-07-31T22:58:25.412Z,102139.95
2018-07-31T23:00:54.217Z,102138.38
2018-07-31T23:03:22.995Z,102143.97
2018-07-31T23:05:51.746Z,102146.75
2018-07-31T23:08:20.548Z,102151.05
2018-07-31T23:10:49.352Z,102154.27
2018-07-31T23:13:18.109Z,102154.67
2018-07-31T23:15:46.976Z,102155.02
2018-07-31T23:18:15.803Z,102152.70
2018-07-31T23:20:44.886Z,102146.70
2018-07-31T23:23:13.650Z,102142.55
2018-07-31T23:25:42.475Z,102146.48
2018-07-31T23:28:11.279Z,102154.45
2018-07-31T23:30:40.032Z,102163.69
2018-07-31T23:33:09.116Z,102156.58
2018-07-31T23:35:37.907Z,102154.45
2018-07-31T23:38:06.859Z,102144.73
2018-07-31T23:40:35.688Z,102149.08
2018-07-31T23:43:04.427Z,102150.05
2018-07-31T23:45:39.302Z,102137.73
2018-07-31T23:48:08.071Z,102133.59
2018-07-31T23:50:36.875Z,102134.80
2018-07-31T23:53:05.670Z,102149.24
2018-07-31T23:55:34.433Z,102158.96
2018-07-31T23:58:03.298Z,102156.00
